Spaulding, California
Current Conditions -  °F | °C
As of 9:55 AM on Friday 31 Oct 2014 (Local Time) from KAAT Reporting Station
Broken Clouds Broken Clouds  
Wind Chill: 55°   Ceiling: 5500
Heat Index: 55°   Visibility: 10mi
Dew Point: 37°   Wind: 21mph
Humidity: 51%   Direction: 180°S
Pressure: 29.84"   Gusts: 28mph
Location:  40.5172°N, 120.68°W
Report Text: KAAT 311655Z AUTO 18018G24KT 10SM BKN055 13/03 A2984 RMK AO2 PK WND 19026/1642 SLP078 T01280028
Loading
Personal Weather Stations






























Interactive Weather Map
Tropical Storm Tracking
New forecast layout! Learn more

10-Day Weather Forecast

Advertisements
Track Severe Weather on mobile